createdAt,value
2018-05-02T00:00:01.717Z,8.17
2018-05-02T00:02:30.727Z,8.06
2018-05-02T00:04:59.227Z,7.93
2018-05-02T00:07:27.612Z,8.38
2018-05-02T00:09:56.030Z,8.14
2018-05-02T00:12:24.531Z,8.14
2018-05-02T00:14:52.912Z,8.06
2018-05-02T00:17:21.341Z,7.77
2018-05-02T00:19:49.813Z,7.99
2018-05-02T00:22:18.208Z,8.10
2018-05-02T00:24:46.551Z,8.02
2018-05-02T00:27:14.993Z,8.00
2018-05-02T00:29:43.349Z,8.17
2018-05-02T00:32:11.710Z,8.02
2018-05-02T00:34:40.069Z,7.89
2018-05-02T00:37:08.468Z,7.86
2018-05-02T00:39:36.938Z,7.90
2018-05-02T00:42:05.319Z,8.04
2018-05-02T00:44:33.802Z,8.24
2018-05-02T00:47:02.158Z,8.17
2018-05-02T00:49:30.547Z,7.80
2018-05-02T00:51:58.917Z,8.20
2018-05-02T00:54:27.268Z,8.00
2018-05-02T00:56:55.633Z,8.17
2018-05-02T00:59:24.011Z,8.09
2018-05-02T01:01:52.392Z,8.32
2018-05-02T01:04:20.813Z,8.06
2018-05-02T01:06:49.178Z,8.03
2018-05-02T01:09:17.624Z,7.98
2018-05-02T01:11:46.037Z,8.03
2018-05-02T01:14:14.484Z,7.73
2018-05-02T01:16:42.876Z,7.97
2018-05-02T01:19:11.290Z,8.01
2018-05-02T01:21:39.723Z,7.80
2018-05-02T01:24:08.087Z,8.20
2018-05-02T01:26:36.477Z,7.87
2018-05-02T01:29:04.892Z,7.90
2018-05-02T01:31:33.301Z,7.66
2018-05-02T01:34:01.749Z,7.64
2018-05-02T01:36:30.169Z,7.88
2018-05-02T01:38:58.562Z,8.20
2018-05-02T01:41:26.981Z,7.79
2018-05-02T01:43:55.381Z,7.45
2018-05-02T01:46:23.788Z,7.72
2018-05-02T01:49:03.994Z,7.51
2018-05-02T01:54:07.174Z,7.46
2018-05-02T01:56:35.605Z,7.36
2018-05-02T01:59:03.967Z,7.64
2018-05-02T02:01:32.329Z,7.42
2018-05-02T02:04:00.687Z,7.50
2018-05-02T02:06:29.054Z,7.66
2018-05-02T02:08:57.414Z,7.14
2018-05-02T02:11:25.853Z,7.39
2018-05-02T02:13:54.236Z,7.28
2018-05-02T02:16:22.606Z,7.22
2018-05-02T02:18:50.989Z,7.40
2018-05-02T02:21:19.503Z,7.47
2018-05-02T02:23:47.820Z,7.36
2018-05-02T02:26:16.185Z,7.49
2018-05-02T02:28:44.646Z,7.57
2018-05-02T02:31:13.017Z,7.24
2018-05-02T02:33:41.450Z,7.46
2018-05-02T02:36:09.792Z,7.33
2018-05-02T02:38:38.176Z,7.14
2018-05-02T02:41:06.568Z,7.11
2018-05-02T02:43:35.077Z,6.84
2018-05-02T02:46:03.455Z,7.31
2018-05-02T02:48:31.842Z,7.11
2018-05-02T02:51:00.273Z,6.89
2018-05-02T02:53:28.682Z,7.24
2018-05-02T02:55:57.135Z,7.13
2018-05-02T02:58:25.554Z,6.97
2018-05-02T03:00:54.049Z,6.70
2018-05-02T03:03:22.449Z,7.14
2018-05-02T03:05:50.835Z,7.07
2018-05-02T03:08:19.274Z,7.06
2018-05-02T03:10:47.689Z,7.09
2018-05-02T03:13:16.208Z,6.76
2018-05-02T03:15:44.618Z,7.23
2018-05-02T03:18:13.013Z,7.01
2018-05-02T03:20:41.410Z,7.45
2018-05-02T03:23:09.790Z,7.49
2018-05-02T03:25:38.290Z,7.38
2018-05-02T03:28:06.661Z,7.52
2018-05-02T03:30:35.097Z,7.21
2018-05-02T03:33:03.546Z,6.81
2018-05-02T03:35:31.974Z,6.97
2018-05-02T03:38:00.380Z,7.08
2018-05-02T03:40:29.038Z,7.07
2018-05-02T03:42:57.824Z,6.76
2018-05-02T03:45:26.653Z,6.80
2018-05-02T03:47:55.283Z,6.91
2018-05-02T03:50:24.082Z,6.78
2018-05-02T03:52:52.601Z,6.70
2018-05-02T03:55:21.249Z,7.03
2018-05-02T03:57:49.947Z,6.93
2018-05-02T04:00:30.567Z,7.06
2018-05-02T04:03:10.678Z,7.30
2018-05-02T04:05:51.094Z,7.30
2018-05-02T04:08:19.555Z,7.12
2018-05-02T04:10:47.945Z,7.13
2018-05-02T04:13:16.342Z,7.41
2018-05-02T04:15:44.718Z,7.64
2018-05-02T04:18:13.166Z,7.24
2018-05-02T04:20:41.585Z,7.28
2018-05-02T04:23:10.039Z,7.10
2018-05-02T04:25:38.484Z,6.92
2018-05-02T04:28:06.947Z,6.71
2018-05-02T04:30:35.431Z,7.06
2018-05-02T04:33:03.810Z,7.24
2018-05-02T04:35:32.301Z,7.19
2018-05-02T04:38:00.669Z,7.23
2018-05-02T04:40:29.106Z,7.49
2018-05-02T04:42:57.494Z,7.67
2018-05-02T04:45:25.907Z,7.81
2018-05-02T04:47:54.335Z,7.79
2018-05-02T04:50:22.718Z,7.77
2018-05-02T04:52:51.125Z,7.80
2018-05-02T04:55:19.557Z,7.81
2018-05-02T04:57:47.989Z,7.80
2018-05-02T05:00:16.415Z,7.65
2018-05-02T05:02:44.844Z,7.69
2018-05-02T05:05:13.326Z,8.09
2018-05-02T05:07:41.751Z,7.97
2018-05-02T05:10:10.185Z,8.07
2018-05-02T05:12:38.568Z,8.05
2018-05-02T05:15:07.675Z,8.48
2018-05-02T05:17:36.052Z,8.31
2018-05-02T05:20:04.490Z,8.28
2018-05-02T05:22:32.933Z,8.34
2018-05-02T05:25:01.307Z,8.57
2018-05-02T05:27:29.727Z,8.80
2018-05-02T05:29:58.121Z,9.05
2018-05-02T05:32:26.532Z,9.80
2018-05-02T05:34:54.925Z,8.76
2018-05-02T05:37:23.543Z,10.25
2018-05-02T05:39:51.971Z,11.27
2018-05-02T05:42:21.525Z,12.56
2018-05-02T05:44:49.949Z,13.62
2018-05-02T05:47:18.369Z,13.28
2018-05-02T05:49:46.862Z,13.89
2018-05-02T05:52:15.282Z,14.03
2018-05-02T05:54:43.728Z,13.87
2018-05-02T05:57:12.208Z,13.15
2018-05-02T05:59:40.606Z,13.87
2018-05-02T06:02:09.106Z,15.63
2018-05-02T06:04:37.563Z,15.70
2018-05-02T06:07:05.953Z,16.11
2018-05-02T06:09:34.358Z,15.74
2018-05-02T06:12:02.770Z,14.96
2018-05-02T06:14:31.389Z,16.11
2018-05-02T06:16:59.806Z,16.38
2018-05-02T06:19:28.232Z,17.06
2018-05-02T06:21:56.679Z,15.35
2018-05-02T06:24:25.112Z,16.65
2018-05-02T06:26:53.573Z,16.97
2018-05-02T06:29:22.993Z,17.22
2018-05-02T06:31:51.522Z,17.10
2018-05-02T06:34:19.854Z,17.55
2018-05-02T06:36:48.265Z,18.78
2018-05-02T06:39:16.661Z,18.56
2018-05-02T06:41:45.062Z,19.36
2018-05-02T06:44:13.520Z,19.66
2018-05-02T06:46:41.904Z,20.60
2018-05-02T06:49:10.379Z,19.56
2018-05-02T06:51:38.834Z,19.64
2018-05-02T06:54:08.029Z,18.91
2018-05-02T06:56:36.425Z,18.17
2018-05-02T06:59:04.956Z,18.45
2018-05-02T07:01:33.325Z,18.55
2018-05-02T07:04:01.709Z,17.49
2018-05-02T07:06:30.116Z,16.87
2018-05-02T07:08:58.734Z,17.25
2018-05-02T07:11:27.189Z,17.20
2018-05-02T07:13:56.160Z,16.32
2018-05-02T07:16:25.402Z,17.69
2018-05-02T07:18:53.906Z,17.57
2018-05-02T07:21:22.312Z,17.39
2018-05-02T07:23:50.699Z,18.11
2018-05-02T07:26:19.113Z,19.12
2018-05-02T07:28:47.484Z,19.37
2018-05-02T07:31:15.881Z,18.83
2018-05-02T07:33:44.381Z,18.95
2018-05-02T07:36:12.886Z,19.64
2018-05-02T07:38:41.336Z,19.08
2018-05-02T07:41:09.760Z,20.01
2018-05-02T07:43:38.189Z,19.64
2018-05-02T07:46:06.601Z,20.23
2018-05-02T07:48:35.844Z,18.91
2018-05-02T07:51:04.264Z,18.14
2018-05-02T07:53:32.689Z,19.86
2018-05-02T07:56:01.091Z,19.76
2018-05-02T07:58:29.552Z,18.76
2018-05-02T08:00:57.971Z,21.26
2018-05-02T08:03:26.389Z,20.15
2018-05-02T08:05:54.868Z,20.92
2018-05-02T08:08:23.281Z,20.54
2018-05-02T08:10:51.732Z,21.22
2018-05-02T08:13:20.194Z,22.58
2018-05-02T08:15:48.614Z,24.02
2018-05-02T08:18:17.011Z,23.81
2018-05-02T08:20:45.498Z,24.52
2018-05-02T08:23:13.886Z,25.85
2018-05-02T08:25:42.294Z,24.22
2018-05-02T08:28:10.737Z,24.91
2018-05-02T08:30:39.199Z,25.15
2018-05-02T08:33:07.674Z,23.79
2018-05-02T08:35:36.068Z,23.22
2018-05-02T08:38:04.729Z,22.74
2018-05-02T08:40:33.185Z,25.02
2018-05-02T08:45:38.018Z,23.60
2018-05-02T08:48:12.085Z,23.79
2018-05-02T08:50:40.966Z,23.42
2018-05-02T08:53:09.697Z,25.08
2018-05-02T08:55:38.220Z,26.25
2018-05-02T08:58:06.719Z,26.64
2018-05-02T09:00:35.225Z,25.44
2018-05-02T09:03:03.643Z,25.64
2018-05-02T09:05:32.259Z,27.89
2018-05-02T09:08:00.705Z,27.77
2018-05-02T09:10:29.143Z,26.17
2018-05-02T09:12:57.583Z,27.37
2018-05-02T09:15:26.511Z,27.73
2018-05-02T09:17:54.952Z,27.90
2018-05-02T09:20:23.348Z,26.68
2018-05-02T09:22:51.722Z,26.81
2018-05-02T09:25:20.120Z,26.75
2018-05-02T09:27:48.597Z,26.68
2018-05-02T09:30:16.982Z,27.00
2018-05-02T09:32:45.393Z,25.06
2018-05-02T09:35:13.854Z,23.60
2018-05-02T09:37:44.923Z,23.99
2018-05-02T09:40:14.877Z,24.58
2018-05-02T09:42:43.342Z,24.74
2018-05-02T09:45:11.714Z,24.53
2018-05-02T09:47:40.943Z,23.61
2018-05-02T09:50:09.297Z,24.53
2018-05-02T09:52:37.704Z,24.61
2018-05-02T09:55:06.092Z,24.76
2018-05-02T09:57:34.546Z,23.31
2018-05-02T10:00:02.960Z,24.64
2018-05-02T10:02:31.327Z,23.49
2018-05-02T10:04:59.767Z,23.19
2018-05-02T10:07:28.190Z,24.21
2018-05-02T10:09:56.534Z,23.18
2018-05-02T10:12:24.928Z,23.48
2018-05-02T10:14:54.162Z,23.11
2018-05-02T10:17:22.615Z,23.43
2018-05-02T10:19:51.065Z,23.10
2018-05-02T10:22:19.543Z,22.75
2018-05-02T10:24:48.036Z,22.21
2018-05-02T10:27:16.489Z,22.46
2018-05-02T10:29:44.977Z,21.55
2018-05-02T10:32:13.583Z,20.37
2018-05-02T10:34:41.974Z,21.96
2018-05-02T10:37:10.462Z,22.28
2018-05-02T10:39:38.904Z,22.61
2018-05-02T10:42:07.318Z,22.50
2018-05-02T10:44:35.790Z,21.79
2018-05-02T10:47:04.219Z,22.47
2018-05-02T10:49:32.770Z,22.75
2018-05-02T10:52:01.282Z,20.88
2018-05-02T10:54:29.701Z,21.47
2018-05-02T10:56:58.178Z,21.71
2018-05-02T10:59:26.601Z,20.96
2018-05-02T11:01:54.985Z,21.12
2018-05-02T11:04:23.486Z,19.70
2018-05-02T11:06:51.891Z,21.31
2018-05-02T11:09:20.281Z,20.52
2018-05-02T11:11:48.720Z,20.62
2018-05-02T11:14:17.148Z,21.09
2018-05-02T11:16:45.560Z,20.63
2018-05-02T11:19:14.041Z,21.40
2018-05-02T11:21:42.466Z,21.76
2018-05-02T11:24:10.878Z,21.31
2018-05-02T11:26:39.367Z,22.64
2018-05-02T11:29:07.857Z,22.45
2018-05-02T11:31:36.334Z,22.70
2018-05-02T11:34:04.724Z,21.96
2018-05-02T11:36:33.124Z,22.15
2018-05-02T11:39:01.609Z,20.95
2018-05-02T11:41:36.214Z,20.73
2018-05-02T11:44:05.474Z,20.74
2018-05-02T11:46:33.881Z,21.06
2018-05-02T11:49:02.279Z,21.74
2018-05-02T11:51:30.693Z,22.36
2018-05-02T11:53:59.115Z,22.33
2018-05-02T11:56:27.549Z,22.10
2018-05-02T11:58:55.964Z,22.82
2018-05-02T12:01:24.369Z,22.08
2018-05-02T12:03:52.761Z,21.58
2018-05-02T12:06:21.207Z,21.18
2018-05-02T12:08:49.796Z,22.25
2018-05-02T12:11:18.179Z,21.40
2018-05-02T12:13:46.764Z,21.73
2018-05-02T12:16:15.377Z,21.05
2018-05-02T12:18:43.747Z,22.24
2018-05-02T12:21:12.105Z,21.51
2018-05-02T12:23:40.640Z,22.20
2018-05-02T12:26:09.106Z,21.38
2018-05-02T12:28:37.741Z,21.75
2018-05-02T12:31:06.173Z,21.45
2018-05-02T12:33:34.684Z,21.26
2018-05-02T12:36:03.140Z,19.55
2018-05-02T12:38:31.625Z,20.64
2018-05-02T12:41:00.069Z,20.61
2018-05-02T12:43:28.692Z,20.68
2018-05-02T12:45:57.331Z,21.05
2018-05-02T12:48:25.794Z,20.02
2018-05-02T12:50:54.277Z,21.00
2018-05-02T12:53:22.722Z,20.88
2018-05-02T12:55:51.215Z,21.04
2018-05-02T12:58:19.785Z,21.41
2018-05-02T13:00:48.327Z,19.74
2018-05-02T13:03:17.317Z,20.76
2018-05-02T13:05:46.026Z,21.39
2018-05-02T13:08:14.584Z,20.61
2018-05-02T13:10:43.152Z,20.92
2018-05-02T13:13:14.403Z,19.74
2018-05-02T13:15:42.915Z,20.83
2018-05-02T13:18:13.006Z,21.21
2018-05-02T13:20:41.488Z,20.21
2018-05-02T13:23:10.182Z,20.77
2018-05-02T13:25:38.601Z,21.06
2018-05-02T13:28:07.016Z,21.26
2018-05-02T13:33:09.769Z,21.06
2018-05-02T13:35:38.966Z,20.91
2018-05-02T13:38:07.397Z,21.43
2018-05-02T13:40:35.857Z,21.00
2018-05-02T13:43:04.354Z,20.61
2018-05-02T13:45:32.863Z,21.08
2018-05-02T13:48:01.353Z,21.38
2018-05-02T13:50:29.804Z,21.05
2018-05-02T13:52:58.255Z,20.06
2018-05-02T13:55:26.687Z,19.65
2018-05-02T13:57:55.304Z,20.73
2018-05-02T14:00:23.778Z,20.41
2018-05-02T14:02:52.243Z,20.50
2018-05-02T14:05:20.704Z,20.43
2018-05-02T14:07:49.264Z,21.38
2018-05-02T14:10:17.726Z,21.62
2018-05-02T14:12:46.218Z,21.93
2018-05-02T14:15:14.726Z,22.17
2018-05-02T14:17:43.144Z,21.04
2018-05-02T14:20:11.608Z,21.21
2018-05-02T14:22:40.015Z,21.56
2018-05-02T14:25:08.428Z,21.87
2018-05-02T14:27:36.874Z,20.94
2018-05-02T14:30:05.283Z,20.97
2018-05-02T14:32:33.753Z,20.97
2018-05-02T14:35:02.205Z,20.66
2018-05-02T14:37:30.614Z,21.35
2018-05-02T14:39:59.057Z,20.66
2018-05-02T14:42:27.473Z,20.84
2018-05-02T14:44:55.893Z,21.37
2018-05-02T14:47:24.326Z,21.11
2018-05-02T14:49:52.725Z,21.74
2018-05-02T14:52:21.107Z,20.44
2018-05-02T14:54:49.535Z,20.71
2018-05-02T14:57:17.995Z,20.55
2018-05-02T14:59:46.485Z,19.92
2018-05-02T15:02:14.927Z,20.27
2018-05-02T15:04:43.258Z,20.67
2018-05-02T15:07:11.809Z,21.25
2018-05-02T15:09:40.187Z,20.79
2018-05-02T15:12:31.136Z,20.92
2018-05-02T15:14:59.515Z,21.33
2018-05-02T15:17:27.881Z,20.77
2018-05-02T15:19:56.343Z,21.35
2018-05-02T15:22:24.754Z,20.58
2018-05-02T15:24:53.127Z,20.66
2018-05-02T15:27:21.886Z,20.72
2018-05-02T15:29:50.318Z,21.15
2018-05-02T15:32:18.894Z,21.17
2018-05-02T15:34:47.348Z,21.08
2018-05-02T15:37:15.773Z,21.43
2018-05-02T15:39:45.235Z,20.89
2018-05-02T15:42:13.712Z,21.26
2018-05-02T15:44:42.192Z,21.00
2018-05-02T15:47:10.615Z,20.27
2018-05-02T15:49:39.071Z,20.51
2018-05-02T15:52:07.520Z,20.64
2018-05-02T15:54:46.282Z,20.12
2018-05-02T15:57:15.681Z,20.43
2018-05-02T15:59:44.172Z,20.33
2018-05-02T16:02:12.582Z,20.77
2018-05-02T16:04:45.976Z,20.84
2018-05-02T16:07:14.460Z,20.28
2018-05-02T16:09:42.860Z,20.64
2018-05-02T16:12:11.264Z,20.76
2018-05-02T16:14:39.664Z,20.08
2018-05-02T16:17:09.055Z,20.20
2018-05-02T16:19:37.594Z,20.25
2018-05-02T16:22:06.017Z,19.84
2018-05-02T16:24:34.393Z,20.75
2018-05-02T16:27:02.815Z,20.21
2018-05-02T16:29:31.252Z,20.36
2018-05-02T16:31:59.800Z,20.35
2018-05-02T16:34:28.225Z,20.21
2018-05-02T16:36:56.610Z,19.58
2018-05-02T16:39:25.103Z,19.39
2018-05-02T16:41:53.534Z,19.54
2018-05-02T16:44:22.056Z,20.01
2018-05-02T16:46:50.875Z,19.64
2018-05-02T16:49:19.258Z,19.59
2018-05-02T16:51:47.818Z,19.34
2018-05-02T16:54:16.261Z,19.78
2018-05-02T16:56:44.688Z,19.95
2018-05-02T16:59:13.063Z,20.31
2018-05-02T17:01:41.436Z,19.86
2018-05-02T17:04:13.675Z,19.07
2018-05-02T17:06:43.002Z,19.42
2018-05-02T17:09:11.437Z,19.28
2018-05-02T17:11:41.115Z,19.18
2018-05-02T17:14:10.604Z,19.54
2018-05-02T17:16:42.325Z,19.57
2018-05-02T17:19:11.337Z,19.09
2018-05-02T17:21:39.768Z,18.84
2018-05-02T17:24:08.601Z,19.19
2018-05-02T17:26:39.363Z,19.60
2018-05-02T17:29:07.861Z,18.56
2018-05-02T17:31:36.376Z,18.88
2018-05-02T17:34:04.801Z,19.07
2018-05-02T17:36:34.823Z,18.18
2018-05-02T17:39:03.241Z,18.22
2018-05-02T17:41:31.667Z,18.13
2018-05-02T17:44:00.091Z,18.05
2018-05-02T17:46:28.716Z,18.10
2018-05-02T17:48:57.646Z,18.87
2018-05-02T17:51:26.109Z,18.63
2018-05-02T17:53:54.625Z,18.77
2018-05-02T17:56:23.054Z,18.78
2018-05-02T17:58:52.977Z,18.93
2018-05-02T18:01:21.430Z,18.36
2018-05-02T18:03:49.922Z,17.96
2018-05-02T18:06:18.398Z,18.28
2018-05-02T18:08:46.885Z,18.44
2018-05-02T18:11:15.315Z,17.95
2018-05-02T18:13:43.816Z,17.81
2018-05-02T18:16:12.433Z,17.45
2018-05-02T18:18:41.725Z,17.03
2018-05-02T18:21:10.198Z,17.34
2018-05-02T18:23:38.637Z,17.34
2018-05-02T18:26:07.180Z,17.03
2018-05-02T18:28:35.658Z,17.27
2018-05-02T18:31:04.068Z,16.65
2018-05-02T18:33:32.976Z,16.53
2018-05-02T18:36:01.410Z,16.97
2018-05-02T18:38:29.917Z,16.45
2018-05-02T18:40:58.337Z,17.00
2018-05-02T18:43:26.791Z,17.05
2018-05-02T18:45:57.072Z,16.98
2018-05-02T18:48:25.415Z,17.20
2018-05-02T18:50:53.774Z,17.47
2018-05-02T18:53:22.313Z,16.85
2018-05-02T18:55:50.746Z,17.01
2018-05-02T18:58:19.164Z,17.32
2018-05-02T19:00:47.558Z,17.69
2018-05-02T19:03:16.591Z,17.51
2018-05-02T19:05:44.984Z,17.70
2018-05-02T19:08:13.416Z,17.48
2018-05-02T19:10:41.797Z,17.34
2018-05-02T19:13:10.204Z,17.71
2018-05-02T19:15:38.573Z,17.22
2018-05-02T19:18:12.454Z,17.45
2018-05-02T19:20:40.856Z,17.73
2018-05-02T19:23:09.247Z,17.23
2018-05-02T19:25:43.253Z,17.34
2018-05-02T19:28:13.201Z,16.64
2018-05-02T19:30:41.928Z,17.36
2018-05-02T19:33:20.933Z,17.37
2018-05-02T19:35:49.320Z,17.23
2018-05-02T19:38:17.731Z,17.17
2018-05-02T19:40:51.806Z,16.99
2018-05-02T19:43:25.742Z,16.89
2018-05-02T19:45:54.119Z,16.75
2018-05-02T19:48:22.568Z,16.97
2018-05-02T19:50:56.817Z,16.45
2018-05-02T19:53:25.270Z,16.98
2018-05-02T19:55:53.681Z,16.97
2018-05-02T19:58:22.461Z,16.43
2018-05-02T20:00:56.515Z,16.89
2018-05-02T20:03:24.920Z,17.01
2018-05-02T20:05:53.361Z,16.75
2018-05-02T20:08:28.077Z,17.02
2018-05-02T20:11:01.997Z,16.77
2018-05-02T20:13:41.097Z,16.55
2018-05-02T20:16:09.621Z,16.49
2018-05-02T20:18:38.248Z,16.21
2018-05-02T20:21:08.698Z,16.03
2018-05-02T20:23:37.300Z,15.71
2018-05-02T20:26:05.756Z,15.62
2018-05-02T20:28:34.229Z,15.99
2018-05-02T20:31:03.548Z,15.83
2018-05-02T20:33:34.166Z,15.57
2018-05-02T20:36:02.817Z,15.93
2018-05-02T20:38:31.469Z,15.52
2018-05-02T20:40:59.869Z,15.56
2018-05-02T20:43:28.366Z,15.73
2018-05-02T20:45:56.807Z,15.40
2018-05-02T20:48:25.207Z,15.59
2018-05-02T20:50:54.485Z,15.10
2018-05-02T20:53:22.893Z,14.88
2018-05-02T20:55:51.302Z,15.58
2018-05-02T20:58:19.691Z,15.49
2018-05-02T21:00:48.095Z,15.20
2018-05-02T21:03:16.590Z,15.45
2018-05-02T21:05:44.991Z,15.04
2018-05-02T21:08:13.455Z,15.09
2018-05-02T21:10:41.912Z,14.98
2018-05-02T21:13:10.297Z,15.15
2018-05-02T21:15:38.742Z,15.30
2018-05-02T21:18:07.170Z,15.39
2018-05-02T21:20:35.704Z,15.06
2018-05-02T21:23:04.096Z,15.11
2018-05-02T21:25:32.508Z,14.81
2018-05-02T21:28:00.944Z,14.92
2018-05-02T21:30:29.409Z,14.95
2018-05-02T21:32:57.770Z,15.01
2018-05-02T21:35:26.160Z,14.73
2018-05-02T21:37:54.523Z,14.95
2018-05-02T21:40:22.901Z,15.00
2018-05-02T21:42:51.349Z,14.76
2018-05-02T21:45:19.707Z,14.75
2018-05-02T21:47:48.140Z,14.62
2018-05-02T21:50:16.545Z,14.77
2018-05-02T21:52:44.958Z,14.85
2018-05-02T21:55:13.304Z,14.61
2018-05-02T21:57:41.753Z,14.89
2018-05-02T22:00:10.140Z,14.74
2018-05-02T22:02:38.537Z,14.40
2018-05-02T22:05:06.913Z,14.35
2018-05-02T22:07:35.375Z,14.59
2018-05-02T22:10:03.800Z,14.63
2018-05-02T22:12:32.192Z,14.53
2018-05-02T22:15:00.596Z,14.68
2018-05-02T22:17:29.016Z,14.37
2018-05-02T22:19:57.485Z,14.21
2018-05-02T22:22:27.927Z,14.82
2018-05-02T22:24:56.517Z,14.67
2018-05-02T22:27:24.981Z,14.43
2018-05-02T22:29:53.404Z,14.74
2018-05-02T22:32:21.845Z,14.47
2018-05-02T22:34:50.288Z,14.58
2018-05-02T22:37:18.787Z,14.47
2018-05-02T22:39:47.172Z,14.57
2018-05-02T22:42:15.650Z,14.61
2018-05-02T22:44:44.124Z,14.59
2018-05-02T22:47:12.559Z,14.60
2018-05-02T22:49:40.942Z,14.81
2018-05-02T22:52:09.295Z,14.63
2018-05-02T22:54:37.697Z,14.78
2018-05-02T22:57:06.101Z,14.66
2018-05-02T22:59:34.560Z,14.82
2018-05-02T23:02:02.981Z,14.54
2018-05-02T23:04:31.406Z,14.63
2018-05-02T23:06:59.763Z,14.71
2018-05-02T23:09:28.112Z,14.67
2018-05-02T23:11:56.496Z,14.79
2018-05-02T23:14:24.930Z,14.83
2018-05-02T23:16:53.284Z,14.92
2018-05-02T23:19:21.724Z,15.08
2018-05-02T23:21:50.076Z,15.04
2018-05-02T23:24:18.425Z,15.15
2018-05-02T23:26:46.864Z,15.06
2018-05-02T23:29:15.256Z,15.32
2018-05-02T23:31:43.609Z,15.04
2018-05-02T23:34:12.120Z,15.29
2018-05-02T23:36:40.504Z,15.46
2018-05-02T23:39:08.904Z,15.53
2018-05-02T23:41:37.277Z,15.61
2018-05-02T23:44:05.742Z,15.48
2018-05-02T23:46:34.208Z,15.60
2018-05-02T23:49:02.539Z,15.51
2018-05-02T23:51:30.903Z,15.36
2018-05-02T23:53:59.288Z,15.41
2018-05-02T23:56:27.649Z,15.33
2018-05-02T23:58:55.984Z,15.24
